Time;durP1;ratioP1;P1;durP2;ratioP2;P2;SDS_P1;SDS_P2;PMS_P1;PMS_P2;Temp;Humidity;BMP_temperature;BMP_pressure;BME280_temperature;BME280_humidity;BME280_pressure;Samples;Min_cycle;Max_cycle;Signal;HPM_P1;HPM_P2
2023/09/12 00:02:07;;;;;;;14.25;9.52;;;;;;;;;;6211056;28;20396;-80
2023/09/12 00:05:09;;;;;;;17.90;9.13;;;;;;;;;;6212315;28;20499;-80
2023/09/12 00:08:10;;;;;;;18.40;10.10;;;;;;;;;;6214176;28;20049;-81
2023/09/12 00:11:13;;;;;;;13.52;8.98;;;;;;;;;;6210644;28;20057;-78
2023/09/12 00:14:16;;;;;;;19.17;8.82;;;;;;;;;;6212964;28;20046;-79
2023/09/12 00:17:18;;;;;;;19.02;8.88;;;;;;;;;;6210401;28;20056;-81
2023/09/12 00:20:19;;;;;;;17.42;9.30;;;;;;;;;;6211527;28;20049;-79
2023/09/12 00:23:22;;;;;;;11.95;8.77;;;;;;;;;;6212959;28;20049;-79
2023/09/12 00:26:24;;;;;;;;;;;;;;;;;;6209490;28;20049;-79
2023/09/12 00:29:26;;;;;;;16.75;8.75;;;;;;;;;;6215939;28;19921;-80
2023/09/12 00:32:27;;;;;;;15.63;9.18;;;;;;;;;;6212156;28;20049;-81
2023/09/12 00:35:29;;;;;;;16.00;8.65;;;;;;;;;;6210583;28;20053;-78
2023/09/12 00:38:31;;;;;;;15.27;8.70;;;;;;;;;;6212545;28;20049;-80
2023/09/12 00:41:33;;;;;;;17.38;8.77;;;;;;;;;;6191508;28;20034;-80
2023/09/12 00:44:35;;;;;;;17.35;8.98;;;;;;;;;;6210433;28;20041;-78
2023/09/12 00:47:37;;;;;;;18.05;9.18;;;;;;;;;;6212226;28;20056;-80
2023/09/12 00:50:40;;;;;;;15.43;8.82;;;;;;;;;;6227307;28;20515;-81
2023/09/12 00:53:43;;;;;;;16.73;9.38;;;;;;;;;;6217371;28;20046;-77
2023/09/12 00:56:45;;;;;;;;;;;;;;;;;;6192606;28;20444;-80
2023/09/12 00:59:48;;;;;;;17.77;8.82;;;;;;;;;;6212183;28;19937;-77
2023/09/12 01:02:52;;;;;;;15.10;8.70;;;;;;;;;;6204963;28;20065;-79
2023/09/12 01:05:54;;;;;;;14.30;8.70;;;;;;;;;;6224316;28;20034;-78
2023/09/12 01:08:56;;;;;;;13.00;9.23;;;;;;;;;;6226320;28;20052;-78
2023/09/12 01:11:59;;;;;;;14.25;8.85;;;;;;;;;;6221305;28;20052;-80
2023/09/12 01:15:05;;;;;;;13.90;8.40;;;;;;;;;;6211847;28;20053;-78
2023/09/12 01:18:08;;;;;;;14.00;8.13;;;;;;;;;;6224148;28;20076;-79
2023/09/12 01:21:37;;;;;;;16.25;8.80;;;;;;;;;;6194673;28;20038;-78
2023/09/12 01:25:04;;;;;;;15.68;9.45;;;;;;;;;;6210813;28;20509;-77
2023/09/12 01:28:09;;;;;;;12.40;9.07;;;;;;;;;;6205857;28;20050;-76
2023/09/12 01:31:12;;;;;;;15.65;8.73;;;;;;;;;;6194689;28;20034;-80
2023/09/12 01:34:14;;;;;;;16.52;8.57;;;;;;;;;;6213760;28;20045;-76
2023/09/12 01:37:16;;;;;;;12.20;8.45;;;;;;;;;;6212969;28;20133;-78
2023/09/12 01:40:24;;;;;;;17.98;9.95;;;;;;;;;;6212914;28;20068;-80
2023/09/12 01:43:27;;;;;;;18.45;9.50;;;;;;;;;;6231783;28;20056;-77
2023/09/12 01:46:29;;;;;;;16.40;9.85;;;;;;;;;;6186195;28;20050;-77
2023/09/12 01:49:33;;;;;;;16.92;10.15;;;;;;;;;;6156768;28;20057;-78
2023/09/12 01:52:36;;;;;;;17.95;10.18;;;;;;;;;;6163975;28;20061;-77
2023/09/12 01:55:38;;;;;;;16.77;9.98;;;;;;;;;;6181944;28;20152;-80
2023/09/12 01:58:40;;;;;;;11.70;8.68;;;;;;;;;;6190213;28;20049;-79
2023/09/12 02:01:43;;;;;;;15.77;9.40;;;;;;;;;;6189475;28;20038;-79
2023/09/12 02:05:04;;;;;;;17.52;9.65;;;;;;;;;;6189985;28;20042;-79
2023/09/12 02:08:06;;;;;;;13.15;8.93;;;;;;;;;;6180189;28;20608;-77
2023/09/12 02:11:09;;;;;;;12.95;8.25;;;;;;;;;;6190872;28;20050;-76
2023/09/12 02:14:11;;;;;;;15.98;9.48;;;;;;;;;;6189684;28;20051;-77
2023/09/12 02:17:12;;;;;;;18.17;9.43;;;;;;;;;;6173576;28;20054;-80
2023/09/12 02:20:14;;;;;;;15.80;9.32;;;;;;;;;;6170058;28;20133;-79
2023/09/12 02:23:16;;;;;;;14.10;8.90;;;;;;;;;;6189855;28;20073;-78
2023/09/12 02:26:17;;;;;;;13.93;9.38;;;;;;;;;;6189141;28;20046;-79
2023/09/12 02:29:20;;;;;;;16.40;9.40;;;;;;;;;;6186111;28;20046;-78
2023/09/12 02:32:22;;;;;;;16.73;10.25;;;;;;;;;;6185627;28;20043;-81
2023/09/12 02:35:24;;;;;;;19.50;9.87;;;;;;;;;;6170452;28;20423;-79
2023/09/12 02:38:25;;;;;;;17.98;9.90;;;;;;;;;;6168481;28;20038;-79
2023/09/12 02:41:27;;;;;;;16.87;9.63;;;;;;;;;;6187154;28;20524;-80
2023/09/12 02:44:29;;;;;;;12.15;9.27;;;;;;;;;;6186294;28;20053;-79
2023/09/12 02:47:31;;;;;;;20.73;9.73;;;;;;;;;;6185357;28;20577;-77
2023/09/12 02:50:32;;;;;;;19.27;10.10;;;;;;;;;;6191050;28;20064;-80
2023/09/12 02:53:34;;;;;;;17.20;10.45;;;;;;;;;;6194927;28;20054;-79
2023/09/12 02:56:36;;;;;;;14.10;9.45;;;;;;;;;;6206618;28;20046;-80
2023/09/12 02:59:38;;;;;;;15.57;9.18;;;;;;;;;;6194077;28;20053;-79
2023/09/12 03:02:39;;;;;;;17.23;9.43;;;;;;;;;;6208658;28;20046;-77
2023/09/12 03:05:41;;;;;;;21.25;10.00;;;;;;;;;;6210055;28;20050;-77
2023/09/12 03:08:44;;;;;;;15.70;10.23;;;;;;;;;;6226973;28;20046;-79
2023/09/12 03:11:45;;;;;;;14.45;9.52;;;;;;;;;;6215603;28;20441;-77
2023/09/12 03:14:47;;;;;;;14.68;9.85;;;;;;;;;;6231682;28;20053;-78
2023/09/12 03:17:49;;;;;;;15.35;9.40;;;;;;;;;;6189034;28;21506;-80
2023/09/12 03:20:51;;;;;;;15.57;9.73;;;;;;;;;;6210782;28;20407;-80
2023/09/12 03:23:52;;;;;;;14.25;9.25;;;;;;;;;;6196849;28;20125;-79
2023/09/12 03:26:55;;;;;;;14.43;9.98;;;;;;;;;;6211963;28;20721;-79
2023/09/12 03:29:56;;;;;;;17.25;9.95;;;;;;;;;;6227832;28;20489;-79
2023/09/12 03:32:59;;;;;;;15.18;10.23;;;;;;;;;;6191342;28;20049;-78
2023/09/12 03:36:01;;;;;;;16.98;10.45;;;;;;;;;;6208374;28;20058;-78
2023/09/12 03:39:05;;;;;;;13.02;9.48;;;;;;;;;;6196674;28;20046;-80
2023/09/12 03:42:06;;;;;;;15.70;10.35;;;;;;;;;;6213602;28;20045;-80
2023/09/12 03:45:09;;;;;;;14.30;9.63;;;;;;;;;;6216337;28;20061;-81
2023/09/12 03:48:11;;;;;;;16.35;9.65;;;;;;;;;;6193411;28;20702;-80
2023/09/12 03:51:13;;;;;;;18.48;10.32;;;;;;;;;;6214317;28;20049;-80
2023/09/12 03:54:15;;;;;;;17.42;9.43;;;;;;;;;;6227551;28;20041;-80
2023/09/12 03:57:17;;;;;;;15.73;9.40;;;;;;;;;;6212632;28;20065;-79
2023/09/12 04:00:19;;;;;;;14.55;9.60;;;;;;;;;;6213112;28;20129;-81
2023/09/12 04:03:23;;;;;;;16.42;9.50;;;;;;;;;;6212488;28;20042;-81
2023/09/12 04:06:25;;;;;;;16.08;9.90;;;;;;;;;;6211138;28;20057;-81
2023/09/12 04:09:28;;;;;;;12.23;9.70;;;;;;;;;;6229243;28;20100;-80
2023/09/12 04:12:30;;;;;;;16.75;10.10;;;;;;;;;;6212752;28;20535;-77
2023/09/12 04:15:31;;;;;;;12.45;9.10;;;;;;;;;;6212587;28;20057;-81
2023/09/12 04:18:33;;;;;;;16.95;10.25;;;;;;;;;;6195713;28;20050;-78
2023/09/12 04:21:35;;;;;;;16.95;9.93;;;;;;;;;;6196784;28;20057;-80
2023/09/12 04:24:37;;;;;;;16.00;10.43;;;;;;;;;;6211871;28;20122;-77
2023/09/12 04:27:40;;;;;;;14.70;9.80;;;;;;;;;;6195956;28;20090;-80
2023/09/12 04:30:42;;;;;;;16.30;9.35;;;;;;;;;;6211527;28;20065;-79
2023/09/12 04:33:51;;;;;;;17.33;9.60;;;;;;;;;;6211818;28;20053;-79
2023/09/12 04:36:53;;;;;;;17.33;8.98;;;;;;;;;;6197172;28;20038;-80
2023/09/12 04:39:56;;;;;;;14.13;9.32;;;;;;;;;;6192424;28;20135;-80
2023/09/12 04:42:58;;;;;;;;;;;;;;;;;;6213282;28;20530;-80
2023/09/12 04:46:00;;;;;;;15.98;9.77;;;;;;;;;;6215359;28;19933;-77
2023/09/12 04:49:03;;;;;;;15.63;10.07;;;;;;;;;;6204674;28;20046;-79
2023/09/12 04:52:05;;;;;;;14.77;9.77;;;;;;;;;;6184031;28;20051;-77
2023/09/12 04:55:08;;;;;;;15.77;9.32;;;;;;;;;;6204364;28;20054;-77
2023/09/12 04:58:10;;;;;;;16.57;9.57;;;;;;;;;;6195901;28;20054;-81
2023/09/12 05:01:12;;;;;;;15.60;9.77;;;;;;;;;;6183295;28;20049;-80
2023/09/12 05:04:14;;;;;;;15.35;9.23;;;;;;;;;;6181827;28;20047;-80
2023/09/12 05:07:16;;;;;;;21.33;10.13;;;;;;;;;;6171498;28;20038;-81
2023/09/12 05:10:20;;;;;;;13.95;9.60;;;;;;;;;;6189532;28;20053;-80
2023/09/12 05:13:22;;;;;;;14.48;10.60;;;;;;;;;;6189517;28;20050;-82
2023/09/12 05:16:24;;;;;;;20.38;11.52;;;;;;;;;;6188354;28;20058;-80
2023/09/12 05:19:26;;;;;;;16.48;10.55;;;;;;;;;;6187941;28;20042;-79
2023/09/12 05:22:28;;;;;;;20.90;10.53;;;;;;;;;;6189943;28;20598;-79
2023/09/12 05:25:30;;;;;;;19.23;10.85;;;;;;;;;;6172461;28;20503;-80
2023/09/12 05:28:33;;;;;;;21.83;11.63;;;;;;;;;;6188829;28;20050;-81
2023/09/12 05:31:35;;;;;;;19.55;10.98;;;;;;;;;;6188850;28;20049;-81
2023/09/12 05:34:37;;;;;;;21.23;10.47;;;;;;;;;;6170503;28;20532;-79
2023/09/12 05:37:39;;;;;;;21.15;12.02;;;;;;;;;;6182665;28;20092;-81
2023/09/12 05:40:40;;;;;;;21.08;11.07;;;;;;;;;;6193273;28;20054;-80
2023/09/12 05:43:42;;;;;;;18.08;10.55;;;;;;;;;;6188449;28;20039;-78
2023/09/12 05:46:48;;;;;;;23.67;10.65;;;;;;;;;;6191339;28;20046;-79
2023/09/12 05:49:50;;;;;;;16.77;11.20;;;;;;;;;;6210784;28;20082;-78
2023/09/12 05:52:52;;;;;;;17.00;10.73;;;;;;;;;;6209682;28;20389;-77
2023/09/12 05:55:54;;;;;;;20.58;10.65;;;;;;;;;;6208219;28;20176;-77
2023/09/12 05:58:56;;;;;;;14.75;10.63;;;;;;;;;;6207801;28;20046;-77
2023/09/12 06:01:57;;;;;;;16.80;11.02;;;;;;;;;;6212629;28;20042;-77
2023/09/12 06:05:00;;;;;;;18.97;10.60;;;;;;;;;;6210159;28;20085;-77
2023/09/12 06:08:01;;;;;;;16.38;10.30;;;;;;;;;;6210415;28;20064;-77
2023/09/12 06:11:04;;;;;;;15.45;10.65;;;;;;;;;;6210531;28;20049;-77
2023/09/12 06:14:05;;;;;;;18.60;10.17;;;;;;;;;;6211374;28;20042;-77
2023/09/12 06:17:07;;;;;;;17.70;10.63;;;;;;;;;;6211573;28;20057;-79
2023/09/12 06:20:09;;;;;;;17.20;9.88;;;;;;;;;;6213163;28;20420;-81
2023/09/12 06:23:11;;;;;;;16.70;10.38;;;;;;;;;;6211062;28;20054;-82
2023/09/12 06:26:12;;;;;;;19.33;10.95;;;;;;;;;;6216874;28;20049;-79
2023/09/12 06:29:14;;;;;;;19.17;10.77;;;;;;;;;;6215410;28;20057;-78
2023/09/12 06:32:18;;;;;;;15.52;10.35;;;;;;;;;;6214764;28;20077;-79
2023/09/12 06:35:19;;;;;;;19.38;9.80;;;;;;;;;;6213304;28;20068;-81
2023/09/12 06:38:23;;;;;;;16.00;10.23;;;;;;;;;;6211039;28;20056;-82
2023/09/12 06:41:25;;;;;;;14.98;10.20;;;;;;;;;;6213805;28;20053;-81
2023/09/12 06:44:29;;;;;;;17.70;10.07;;;;;;;;;;6228881;28;20061;-80
2023/09/12 06:47:30;;;;;;;14.60;9.80;;;;;;;;;;6213552;28;20046;-80
2023/09/12 06:50:32;;;;;;;18.23;9.75;;;;;;;;;;6212722;28;20050;-82
2023/09/12 06:53:37;;;;;;;18.10;9.95;;;;;;;;;;6215019;28;20109;-80
2023/09/12 06:56:41;;;;;;;15.93;10.00;;;;;;;;;;6203580;28;20042;-81
2023/09/12 06:59:43;;;;;;;15.77;9.15;;;;;;;;;;6215456;28;20049;-81
2023/09/12 07:02:44;;;;;;;16.20;10.25;;;;;;;;;;6212078;28;20046;-81
2023/09/12 07:05:46;;;;;;;14.38;9.85;;;;;;;;;;6213874;28;20280;-79
2023/09/12 07:08:48;;;;;;;18.85;10.40;;;;;;;;;;6212814;28;20460;-78
2023/09/12 07:11:50;;;;;;;19.33;9.97;;;;;;;;;;6194547;28;20427;-77
2023/09/12 07:14:51;;;;;;;14.45;9.00;;;;;;;;;;6211624;28;20048;-80
2023/09/12 07:17:53;;;;;;;15.10;9.38;;;;;;;;;;6206976;28;20050;-78
2023/09/12 07:21:13;;;;;;;16.17;9.07;;;;;;;;;;6212600;28;20193;-78
2023/09/12 07:24:15;;;;;;;14.90;8.93;;;;;;;;;;6212732;28;20046;-78
2023/09/12 07:27:17;;;;;;;17.52;9.30;;;;;;;;;;6212474;28;20076;-79
2023/09/12 07:30:20;;;;;;;;;;;;;;;;;;6195742;28;20046;-80
2023/09/12 07:33:21;;;;;;;18.25;9.15;;;;;;;;;;6211374;28;19921;-78
2023/09/12 07:36:23;;;;;;;17.00;8.47;;;;;;;;;;6214535;28;20522;-78
2023/09/12 07:39:25;;;;;;;13.65;7.85;;;;;;;;;;6213875;28;20426;-80
2023/09/12 07:42:27;;;;;;;15.18;8.38;;;;;;;;;;6213847;28;20046;-80
2023/09/12 07:45:29;;;;;;;16.05;8.77;;;;;;;;;;6213962;28;20119;-80
2023/09/12 07:48:32;;;;;;;13.68;8.07;;;;;;;;;;6211057;28;20042;-80
2023/09/12 07:51:33;;;;;;;16.38;8.18;;;;;;;;;;6211741;28;20069;-81
2023/09/12 07:54:36;;;;;;;17.67;9.18;;;;;;;;;;6215030;28;20052;-81
2023/09/12 07:57:38;;;;;;;17.73;9.98;;;;;;;;;;6213441;28;20463;-78
2023/09/12 08:00:40;;;;;;;17.30;8.93;;;;;;;;;;6230944;28;20061;-81
2023/09/12 08:03:42;;;;;;;17.07;9.43;;;;;;;;;;6211680;28;20057;-81
2023/09/12 08:06:45;;;;;;;14.35;8.68;;;;;;;;;;6218860;28;20103;-78
2023/09/12 08:09:59;;;;;;;16.15;8.23;;;;;;;;;;6222228;28;20050;-76
2023/09/12 08:13:00;;;;;;;18.65;8.15;;;;;;;;;;6219482;28;20042;-77
2023/09/12 08:16:02;;;;;;;14.48;9.15;;;;;;;;;;6209457;28;20120;-77
2023/09/12 08:19:04;;;;;;;15.00;8.60;;;;;;;;;;6207472;28;20522;-77
2023/09/12 08:22:07;;;;;;;12.98;7.55;;;;;;;;;;6208672;28;20057;-76
2023/09/12 08:25:10;;;;;;;10.93;7.93;;;;;;;;;;6207329;28;20731;-76
2023/09/12 08:28:11;;;;;;;18.00;8.00;;;;;;;;;;6207278;28;20053;-76
2023/09/12 08:31:13;;;;;;;14.27;7.82;;;;;;;;;;6207090;28;20050;-75
2023/09/12 08:34:14;;;;;;;13.53;7.70;;;;;;;;;;6206335;28;20042;-75
2023/09/12 08:37:16;;;;;;;14.23;8.23;;;;;;;;;;6203849;28;20038;-75
2023/09/12 08:40:18;;;;;;;17.60;7.93;;;;;;;;;;6207635;28;20077;-76
2023/09/12 08:43:20;;;;;;;15.13;7.57;;;;;;;;;;6211247;28;20049;-76
2023/09/12 08:46:22;;;;;;;13.75;8.05;;;;;;;;;;6214163;28;20054;-79
2023/09/12 08:49:24;;;;;;;11.95;8.23;;;;;;;;;;6213762;28;20034;-79
2023/09/12 08:52:27;;;;;;;17.55;8.43;;;;;;;;;;6213691;28;20507;-78
2023/09/12 08:55:29;;;;;;;12.93;7.82;;;;;;;;;;6215272;28;20042;-80
2023/09/12 08:58:33;;;;;;;9.27;7.38;;;;;;;;;;6211268;28;20234;-80
2023/09/12 09:01:35;;;;;;;12.73;8.00;;;;;;;;;;6212634;28;20500;-80
2023/09/12 09:04:39;;;;;;;11.57;7.97;;;;;;;;;;6212824;28;20150;-78
2023/09/12 09:07:42;;;;;;;18.70;8.38;;;;;;;;;;6211994;28;20042;-79
2023/09/12 09:11:03;;;;;;;14.55;8.00;;;;;;;;;;6212555;28;20046;-78
2023/09/12 09:14:04;;;;;;;14.27;7.47;;;;;;;;;;6204540;28;20510;-78
2023/09/12 09:17:06;;;;;;;13.43;7.55;;;;;;;;;;6211762;28;20526;-78
2023/09/12 09:20:34;;;;;;;11.57;7.63;;;;;;;;;;6213635;28;20057;-79
2023/09/12 09:23:45;;;;;;;14.57;7.35;;;;;;;;;;6210914;28;20867;-79
2023/09/12 09:26:50;;;;;;;13.38;7.63;;;;;;;;;;6213437;28;20041;-79
2023/09/12 09:29:51;;;;;;;10.52;7.95;;;;;;;;;;6211234;28;20500;-79
2023/09/12 09:32:56;;;;;;;14.52;7.50;;;;;;;;;;6213064;28;20077;-78
2023/09/12 09:36:03;;;;;;;12.30;7.80;;;;;;;;;;6228156;28;20045;-79
2023/09/12 09:39:05;;;;;;;11.93;7.88;;;;;;;;;;6212933;28;20048;-80
2023/09/12 09:42:11;;;;;;;14.35;7.78;;;;;;;;;;6210966;28;20049;-79
2023/09/12 09:45:13;;;;;;;14.20;8.32;;;;;;;;;;6213650;28;20064;-79
2023/09/12 09:48:23;;;;;;;14.48;7.80;;;;;;;;;;6182257;28;20136;-79
2023/09/12 09:51:25;;;;;;;10.27;7.50;;;;;;;;;;6186842;28;20141;-79
2023/09/12 09:54:27;;;;;;;22.00;12.07;;;;;;;;;;6170488;28;20042;-79
2023/09/12 09:57:29;;;;;;;18.42;9.85;;;;;;;;;;6189350;28;20693;-79
2023/09/12 10:00:33;;;;;;;;;;;;;;;;;;6187178;28;20047;-79
2023/09/12 10:03:36;;;;;;;11.55;7.60;;;;;;;;;;6201344;28;19932;-78
2023/09/12 10:06:39;;;;;;;13.00;7.57;;;;;;;;;;6182916;28;20046;-79
2023/09/12 10:09:42;;;;;;;9.85;7.65;;;;;;;;;;6186059;28;20424;-79
2023/09/12 10:12:52;;;;;;;12.93;8.00;;;;;;;;;;6185593;28;20041;-79
2023/09/12 10:15:56;;;;;;;12.32;7.05;;;;;;;;;;6188019;28;20479;-77
2023/09/12 10:19:35;;;;;;;12.63;7.03;;;;;;;;;;6187958;28;20070;-76
2023/09/12 10:22:43;;;;;;;13.57;7.13;;;;;;;;;;6183011;28;20090;-76
2023/09/12 10:25:47;;;;;;;13.77;6.97;;;;;;;;;;6185465;28;20042;-75
2023/09/12 10:28:51;;;;;;;11.30;6.68;;;;;;;;;;6176974;28;20408;-77
2023/09/12 10:31:53;;;;;;;13.63;7.10;;;;;;;;;;6209253;28;20050;-77
2023/09/12 10:34:58;;;;;;;11.07;7.03;;;;;;;;;;6208215;28;20077;-77
2023/09/12 10:38:03;;;;;;;17.55;7.38;;;;;;;;;;6198293;28;20085;-77
2023/09/12 10:41:09;;;;;;;14.18;6.70;;;;;;;;;;6186308;28;20050;-77
2023/09/12 10:44:14;;;;;;;12.23;6.97;;;;;;;;;;6186152;28;20076;-78
2023/09/12 10:47:18;;;;;;;13.43;6.95;;;;;;;;;;6184463;28;20053;-77
2023/09/12 10:50:20;;;;;;;11.02;6.88;;;;;;;;;;6182782;28;20073;-78
2023/09/12 10:53:25;;;;;;;10.82;7.05;;;;;;;;;;6186404;28;20038;-79
2023/09/12 10:56:32;;;;;;;10.50;6.35;;;;;;;;;;6186105;28;20522;-78
2023/09/12 10:59:37;;;;;;;11.25;6.97;;;;;;;;;;6188831;28;20046;-78
2023/09/12 11:02:43;;;;;;;13.25;7.05;;;;;;;;;;6207268;28;20426;-77
2023/09/12 11:05:53;;;;;;;10.82;6.78;;;;;;;;;;6209174;28;20645;-78
2023/09/12 11:09:28;;;;;;;12.38;6.80;;;;;;;;;;6210866;28;20412;-81
2023/09/12 11:12:36;;;;;;;12.18;6.57;;;;;;;;;;6147185;28;20060;-83
2023/09/12 11:16:11;;;;;;;15.13;7.05;;;;;;;;;;6194368;28;20458;-82
2023/09/12 11:19:18;;;;;;;10.85;6.95;;;;;;;;;;6205890;28;20129;-82
2023/09/12 11:22:34;;;;;;;14.00;6.72;;;;;;;;;;6185147;28;20081;-82
2023/09/12 11:25:36;;;;;;;11.68;6.55;;;;;;;;;;6169752;28;20054;-83
2023/09/12 11:28:39;;;;;;;10.25;6.88;;;;;;;;;;6183954;28;20096;-82
2023/09/12 11:31:42;;;;;;;11.70;6.68;;;;;;;;;;6180683;28;20089;-82
2023/09/12 11:34:46;;;;;;;8.90;6.70;;;;;;;;;;6185282;28;20050;-84
2023/09/12 11:37:50;;;;;;;12.35;6.75;;;;;;;;;;6189345;28;20069;-80
2023/09/12 11:40:51;;;;;;;12.30;6.68;;;;;;;;;;6201025;28;20061;-80
2023/09/12 11:43:55;;;;;;;12.93;6.72;;;;;;;;;;6204535;28;20427;-79
2023/09/12 11:47:03;;;;;;;9.70;6.75;;;;;;;;;;6209677;28;20570;-81
2023/09/12 11:50:05;;;;;;;13.38;6.70;;;;;;;;;;6192993;28;20459;-79
2023/09/12 11:53:08;;;;;;;;;;;;;;;;;;6215755;28;20050;-80
2023/09/12 11:56:09;;;;;;;;;;;;;;;;;;6228662;28;19921;-81
2023/09/12 11:59:11;;;;;;;14.00;6.77;;;;;;;;;;6213372;28;20013;-79
2023/09/12 12:02:15;;;;;;;10.45;6.72;;;;;;;;;;6193406;28;20054;-80
2023/09/12 12:05:17;;;;;;;11.45;6.35;;;;;;;;;;6194158;28;20044;-81
2023/09/12 12:08:19;;;;;;;14.25;6.85;;;;;;;;;;6190298;28;20057;-82
2023/09/12 12:11:27;;;;;;;11.82;6.65;;;;;;;;;;6210133;28;20042;-80
2023/09/12 12:14:33;;;;;;;13.63;6.97;;;;;;;;;;6211052;28;20400;-82
2023/09/12 12:17:37;;;;;;;13.32;6.85;;;;;;;;;;6209191;28;20053;-80
2023/09/12 12:20:38;;;;;;;14.73;6.90;;;;;;;;;;6211140;28;20041;-80
2023/09/12 12:23:40;;;;;;;15.13;7.25;;;;;;;;;;6211596;28;20053;-81
2023/09/12 12:26:43;;;;;;;11.27;6.63;;;;;;;;;;6200401;28;20682;-80
2023/09/12 12:29:45;;;;;;;13.02;6.38;;;;;;;;;;6211335;28;20053;-82
2023/09/12 12:32:49;;;;;;;7.75;6.70;;;;;;;;;;6209913;28;20514;-80
2023/09/12 12:36:02;;;;;;;13.07;7.10;;;;;;;;;;6213634;28;20042;-79
2023/09/12 12:39:04;;;;;;;9.70;6.22;;;;;;;;;;6208927;28;20054;-81
2023/09/12 12:42:07;;;;;;;;;;;;;;;;;;6194143;28;20056;-80
2023/09/12 12:45:16;;;;;;;11.00;6.30;;;;;;;;;;6210317;28;19928;-79
2023/09/12 12:48:32;;;;;;;14.68;7.40;;;;;;;;;;6213206;28;20053;-81
2023/09/12 12:51:34;;;;;;;15.68;6.97;;;;;;;;;;6212755;28;20042;-79
2023/09/12 12:54:35;;;;;;;19.52;8.07;;;;;;;;;;6214331;28;20065;-82
2023/09/12 12:57:38;;;;;;;13.05;6.80;;;;;;;;;;6213257;28;20139;-79
2023/09/12 13:00:41;;;;;;;11.15;7.03;;;;;;;;;;6212045;28;20177;-78
2023/09/12 13:03:42;;;;;;;;;;;;;;;;;;6211401;28;20045;-79
2023/09/12 13:06:44;;;;;;;12.43;6.60;;;;;;;;;;6213390;28;20468;-79
2023/09/12 13:09:47;;;;;;;14.13;6.93;;;;;;;;;;6213448;28;20175;-81
2023/09/12 13:12:50;;;;;;;15.15;7.15;;;;;;;;;;6210021;28;20050;-80
2023/09/12 13:15:52;;;;;;;10.38;6.40;;;;;;;;;;6195417;28;20038;-80
2023/09/12 13:18:54;;;;;;;14.60;6.63;;;;;;;;;;6210887;28;20048;-82
2023/09/12 13:21:56;;;;;;;17.35;6.72;;;;;;;;;;6212919;28;20041;-82
2023/09/12 13:24:58;;;;;;;;;;;;;;;;;;6211167;28;20047;-85
2023/09/12 13:27:59;;;;;;;11.57;6.57;;;;;;;;;;6210012;28;19929;-81
2023/09/12 13:31:01;;;;;;;14.35;7.53;;;;;;;;;;6212220;28;20530;-80
2023/09/12 13:34:03;;;;;;;12.82;7.70;;;;;;;;;;6213542;28;20056;-79
2023/09/12 13:37:05;;;;;;;15.00;6.70;;;;;;;;;;6194534;28;20050;-78
2023/09/12 13:40:13;;;;;;;13.75;7.53;;;;;;;;;;6213504;28;20100;-85
2023/09/12 13:43:15;;;;;;;11.32;7.05;;;;;;;;;;6213219;28;20589;-84
2023/09/12 13:46:17;;;;;;;14.68;6.95;;;;;;;;;;6214521;28;20053;-83
2023/09/12 13:49:19;;;;;;;16.83;7.05;;;;;;;;;;6215542;28;20052;-84
2023/09/12 13:52:21;;;;;;;14.88;7.53;;;;;;;;;;6188603;28;20455;-84
2023/09/12 13:55:23;;;;;;;;;;;;;;;;;;6211633;28;20427;-80
2023/09/12 13:58:44;;;;;;;16.05;7.15;;;;;;;;;;6210232;28;19929;-82
2023/09/12 14:01:47;;;;;;;14.52;7.13;;;;;;;;;;6184461;28;20053;-81
2023/09/12 14:04:49;;;;;;;14.55;7.18;;;;;;;;;;6185221;28;20046;-84
2023/09/12 14:08:04;;;;;;;13.50;6.97;;;;;;;;;;6185237;28;20529;-79
2023/09/12 14:11:05;;;;;;;11.30;7.20;;;;;;;;;;6189791;28;20077;-82
2023/09/12 14:14:13;;;;;;;12.73;7.68;;;;;;;;;;6188624;28;20049;-80
2023/09/12 14:17:18;;;;;;;13.80;7.32;;;;;;;;;;6192132;28;20057;-80
2023/09/12 14:20:20;;;;;;;16.42;7.95;;;;;;;;;;6172869;28;20535;-80
2023/09/12 14:23:22;;;;;;;9.88;7.03;;;;;;;;;;6195387;28;20057;-79
2023/09/12 14:26:24;;;;;;;13.65;7.97;;;;;;;;;;6212958;28;20065;-78
2023/09/12 14:29:29;;;;;;;14.80;7.45;;;;;;;;;;6196168;28;20046;-81
2023/09/12 14:32:31;;;;;;;13.43;7.20;;;;;;;;;;6195788;28;20045;-78
2023/09/12 14:35:33;;;;;;;12.07;7.15;;;;;;;;;;6196405;28;20082;-81
2023/09/12 14:38:35;;;;;;;16.80;8.15;;;;;;;;;;6197183;28;20042;-79
2023/09/12 14:41:37;;;;;;;12.02;7.13;;;;;;;;;;6215925;28;20507;-80
2023/09/12 14:44:39;;;;;;;12.38;7.47;;;;;;;;;;6202554;28;20046;-79
2023/09/12 14:47:40;;;;;;;12.57;7.30;;;;;;;;;;6233605;28;20053;-80
2023/09/12 14:50:42;;;;;;;9.43;7.30;;;;;;;;;;6222083;28;20056;-81
2023/09/12 14:53:46;;;;;;;12.07;7.03;;;;;;;;;;6234163;28;20050;-77
2023/09/12 14:56:48;;;;;;;9.68;6.90;;;;;;;;;;6207872;28;20046;-79
2023/09/12 14:59:52;;;;;;;12.48;7.15;;;;;;;;;;6203306;28;20523;-78
2023/09/12 15:02:54;;;;;;;12.50;7.10;;;;;;;;;;6189042;28;20050;-79
2023/09/12 15:05:56;;;;;;;11.38;7.05;;;;;;;;;;6196991;28;20156;-78
2023/09/12 15:08:58;;;;;;;13.45;6.82;;;;;;;;;;6211696;28;20046;-78
2023/09/12 15:11:59;;;;;;;9.55;7.10;;;;;;;;;;6202459;28;20574;-79
2023/09/12 15:15:03;;;;;;;10.50;7.20;;;;;;;;;;6191223;28;20471;-81
2023/09/12 15:18:05;;;;;;;14.93;7.32;;;;;;;;;;6185627;28;20057;-80
2023/09/12 15:21:07;;;;;;;13.13;7.05;;;;;;;;;;6191924;28;20078;-80
2023/09/12 15:24:08;;;;;;;12.45;7.50;;;;;;;;;;6189779;28;20050;-79
2023/09/12 15:27:10;;;;;;;13.48;7.43;;;;;;;;;;6175576;28;20749;-78
2023/09/12 15:30:12;;;;;;;10.63;6.93;;;;;;;;;;6187509;28;20046;-81
2023/09/12 15:33:14;;;;;;;16.15;7.90;;;;;;;;;;6188341;28;20045;-82
2023/09/12 15:36:16;;;;;;;12.93;7.18;;;;;;;;;;6186935;28;20053;-76
2023/09/12 15:39:17;;;;;;;11.70;7.18;;;;;;;;;;6172766;28;20038;-77
2023/09/12 15:42:19;;;;;;;10.82;7.57;;;;;;;;;;6201755;28;20041;-77
2023/09/12 15:45:37;;;;;;;12.35;7.03;;;;;;;;;;6181015;28;20052;-76
2023/09/12 15:48:52;;;;;;;11.88;7.05;;;;;;;;;;6203390;28;20046;-77
2023/09/12 15:51:54;;;;;;;8.48;6.90;;;;;;;;;;6178656;28;20042;-77
2023/09/12 15:54:56;;;;;;;12.70;7.72;;;;;;;;;;6178853;28;20042;-77
2023/09/12 15:57:57;;;;;;;14.77;7.43;;;;;;;;;;6163267;28;20061;-77
2023/09/12 16:01:02;;;;;;;10.75;7.03;;;;;;;;;;6164066;28;20042;-79
2023/09/12 16:04:04;;;;;;;13.55;7.30;;;;;;;;;;6163172;28;20051;-78
2023/09/12 16:07:06;;;;;;;;;;;;;;;;;;6165209;28;20361;-79
2023/09/12 16:10:10;;;;;;;12.98;7.22;;;;;;;;;;6156285;28;19929;-81
2023/09/12 16:13:12;;;;;;;10.15;6.43;;;;;;;;;;6157632;28;20062;-77
2023/09/12 16:16:14;;;;;;;14.35;6.95;;;;;;;;;;6162259;28;20057;-82
2023/09/12 16:19:16;;;;;;;11.02;7.55;;;;;;;;;;6187641;28;20054;-77
2023/09/12 16:22:21;;;;;;;13.35;6.95;;;;;;;;;;6188775;28;20046;-78
2023/09/12 16:25:22;;;;;;;11.25;7.35;;;;;;;;;;6184831;28;20105;-79
2023/09/12 16:28:25;;;;;;;12.43;7.00;;;;;;;;;;6182935;28;20052;-78
2023/09/12 16:31:26;;;;;;;12.27;7.40;;;;;;;;;;6179495;28;20065;-79
2023/09/12 16:34:29;;;;;;;11.18;7.15;;;;;;;;;;6182512;28;20097;-77
2023/09/12 16:37:32;;;;;;;12.82;7.88;;;;;;;;;;6182140;28;20042;-79
2023/09/12 16:40:36;;;;;;;15.02;7.53;;;;;;;;;;6204115;28;20126;-78
2023/09/12 16:43:38;;;;;;;14.60;7.97;;;;;;;;;;6185898;28;20057;-79
2023/09/12 16:46:40;;;;;;;10.98;7.30;;;;;;;;;;6178009;28;20057;-78
2023/09/12 16:49:42;;;;;;;10.30;7.72;;;;;;;;;;6209692;28;20053;-80
2023/09/12 16:52:44;;;;;;;13.32;7.72;;;;;;;;;;6214096;28;20042;-81
2023/09/12 16:55:45;;;;;;;11.10;7.65;;;;;;;;;;6197438;28;20041;-80
2023/09/12 16:58:47;;;;;;;12.90;7.93;;;;;;;;;;6210524;28;20046;-81
2023/09/12 17:01:49;;;;;;;13.07;7.63;;;;;;;;;;6214227;28;20046;-80
2023/09/12 17:04:51;;;;;;;13.60;7.88;;;;;;;;;;6202097;28;20060;-80
2023/09/12 17:07:53;;;;;;;12.43;7.43;;;;;;;;;;6202031;28;20050;-79
2023/09/12 17:10:55;;;;;;;15.85;7.82;;;;;;;;;;6203546;28;20034;-81
2023/09/12 17:13:57;;;;;;;16.48;7.68;;;;;;;;;;6206547;28;20046;-79
2023/09/12 17:17:00;;;;;;;13.52;7.90;;;;;;;;;;6214286;28;20045;-81
2023/09/12 17:20:02;;;;;;;11.25;8.35;;;;;;;;;;6196966;28;20046;-80
2023/09/12 17:23:04;;;;;;;15.82;8.15;;;;;;;;;;6214062;28;20049;-80
2023/09/12 17:26:06;;;;;;;10.55;7.72;;;;;;;;;;6216623;28;20180;-78
2023/09/12 17:29:08;;;;;;;11.80;7.70;;;;;;;;;;6187349;28;20137;-78
2023/09/12 17:32:15;;;;;;;14.38;7.60;;;;;;;;;;6196321;28;20050;-78
2023/09/12 17:35:16;;;;;;;11.00;7.88;;;;;;;;;;6190656;28;20061;-81
2023/09/12 17:38:18;;;;;;;15.60;8.20;;;;;;;;;;6188243;28;20057;-77
2023/09/12 17:41:20;;;;;;;14.70;7.97;;;;;;;;;;6189687;28;22222;-77
2023/09/12 17:44:21;;;;;;;13.47;8.57;;;;;;;;;;6191052;28;20050;-79
2023/09/12 17:47:23;;;;;;;14.73;8.57;;;;;;;;;;6174561;28;20057;-78
2023/09/12 17:50:29;;;;;;;15.93;8.68;;;;;;;;;;6183659;28;20049;-79
2023/09/12 17:53:30;;;;;;;13.68;8.70;;;;;;;;;;6189362;28;20092;-77
2023/09/12 17:56:32;;;;;;;12.70;7.97;;;;;;;;;;6195383;28;20677;-78
2023/09/12 17:59:34;;;;;;;11.98;8.30;;;;;;;;;;6180943;28;20057;-78
2023/09/12 18:02:36;;;;;;;11.73;7.93;;;;;;;;;;6163761;28;20053;-77
2023/09/12 18:05:37;;;;;;;13.20;8.13;;;;;;;;;;6166230;28;20461;-78
2023/09/12 18:08:39;;;;;;;16.63;8.73;;;;;;;;;;6164741;28;20449;-78